Time;durP1;ratioP1;P1;durP2;ratioP2;P2;SDS_P1;SDS_P2;PMS_P1;PMS_P2;Temp;Humidity;BMP_temperature;BMP_pressure;BME280_temperature;BME280_humidity;BME280_pressure;Samples;Min_cycle;Max_cycle;Signal;HPM_P1;HPM_P2
2023/01/09 00:01:16;;;;;;;;;0.00;0.00;;;;;9.18;77.00;97751.22;5038967;28;8850;-61
2023/01/09 00:03:44;;;;;;;;;0.75;0.00;;;;;9.08;78.04;97749.75;5038223;28;8820;-59
2023/01/09 00:06:12;;;;;;;;;0.00;0.00;;;;;8.99;77.72;97756.91;5038206;28;8833;-61
2023/01/09 00:08:40;;;;;;;;;1.00;0.00;;;;;8.91;77.91;97751.59;5037942;28;8809;-59
2023/01/09 00:11:07;;;;;;;;;0.00;0.00;;;;;8.82;78.28;97752.56;5038647;28;8840;-59
2023/01/09 00:13:35;;;;;;;;;0.00;0.00;;;;;8.72;78.21;97751.06;5037796;28;8965;-59
2023/01/09 00:16:03;;;;;;;;;0.00;0.00;;;;;8.60;78.84;97750.53;5038229;28;8841;-59
2023/01/09 00:18:31;;;;;;;;;0.00;0.00;;;;;8.49;79.19;97750.88;5038522;28;8864;-60
2023/01/09 00:20:59;;;;;;;;;0.00;0.00;;;;;8.40;79.05;97751.84;5038714;28;8826;-59
2023/01/09 00:23:26;;;;;;;;;0.00;0.00;;;;;8.32;79.45;97753.63;5038539;28;8822;-60
2023/01/09 00:25:54;;;;;;;;;0.00;0.00;;;;;8.24;79.70;97762.41;5038503;28;8947;-59
2023/01/09 00:28:22;;;;;;;;;0.00;0.00;;;;;8.18;79.69;97755.06;5038777;28;8867;-60
2023/01/09 00:30:50;;;;;;;;;0.00;0.00;;;;;8.13;79.89;97753.88;5038122;28;8882;-60
2023/01/09 00:33:18;;;;;;;;;0.00;0.00;;;;;8.06;80.05;97758.97;5038524;28;8813;-60
2023/01/09 00:35:45;;;;;;;;;0.00;0.00;;;;;8.00;80.37;97748.19;5038543;28;8829;-60
2023/01/09 00:38:13;;;;;;;;;0.00;0.00;;;;;7.94;80.61;97754.97;5038250;28;8855;-60
2023/01/09 00:40:42;;;;;;;;;0.00;0.00;;;;;7.89;80.28;97754.63;5038390;28;8824;-57
2023/01/09 00:43:09;;;;;;;;;0.00;0.00;;;;;7.85;80.66;97755.91;5038451;28;9490;-60
2023/01/09 00:45:37;;;;;;;;;0.00;0.00;;;;;7.83;80.71;97752.59;5038275;28;8809;-60
2023/01/09 00:48:05;;;;;;;;;0.00;0.00;;;;;7.81;80.93;97757.22;5038375;28;8860;-59
2023/01/09 00:50:33;;;;;;;;;0.00;0.00;;;;;7.79;80.73;97761.88;5037946;28;8824;-60
2023/01/09 00:53:01;;;;;;;;;0.00;0.00;;;;;7.77;80.41;97766.47;5038110;28;8839;-59
2023/01/09 00:55:29;;;;;;;;;0.00;0.00;;;;;7.77;80.98;97765.66;5036826;28;8813;-59
2023/01/09 00:57:56;;;;;;;;;0.00;0.00;;;;;7.75;80.58;97765.81;5037269;28;8964;-60
2023/01/09 01:00:24;;;;;;;;;0.00;0.00;;;;;7.74;80.33;97772.09;5037361;28;8843;-57
2023/01/09 01:02:54;;;;;;;;;0.00;0.00;;;;;7.72;81.16;97766.13;5037585;28;8813;-59
2023/01/09 01:08:07;;;;;;;;;0.00;0.00;;;;;7.68;81.55;97772.72;5036744;28;8813;-59
2023/01/09 01:10:35;;;;;;;;;0.00;0.00;;;;;7.67;81.46;97772.06;5037064;28;8828;-58
2023/01/09 01:13:03;;;;;;;;;0.00;0.00;;;;;7.65;81.42;97766.91;5037373;28;8851;-60
2023/01/09 01:15:31;;;;;;;;;0.00;0.00;;;;;7.62;81.54;97769.88;5035522;28;8847;-59
2023/01/09 01:17:58;;;;;;;;;0.00;0.00;;;;;7.61;81.82;97764.72;5036109;28;9552;-59
2023/01/09 01:20:26;;;;;;;;;0.00;0.00;;;;;7.58;81.69;97771.16;5036633;28;8856;-58
2023/01/09 01:22:54;;;;;;;;;0.00;0.00;;;;;7.54;82.18;97764.53;5036102;28;8813;-59
2023/01/09 01:25:22;;;;;;;;;0.00;0.00;;;;;7.53;81.52;97764.69;5036377;28;8849;-59
2023/01/09 01:27:50;;;;;;;;;0.00;0.00;;;;;7.49;81.66;97779.25;5035876;28;8835;-57
2023/01/09 01:30:17;;;;;;;;;0.00;0.00;;;;;7.46;81.57;97779.53;5036166;28;8844;-59
2023/01/09 01:32:45;;;;;;;;;0.00;0.00;;;;;7.44;81.86;97782.31;5036197;28;8813;-59
2023/01/09 01:35:13;;;;;;;;;0.00;0.00;;;;;7.41;81.65;97774.69;5035678;28;8847;-59
2023/01/09 01:37:40;;;;;;;;;0.00;0.00;;;;;7.41;82.10;97779.16;5034870;28;8840;-60
2023/01/09 01:40:08;;;;;;;;;0.00;0.00;;;;;7.39;82.24;97775.84;5035737;28;8879;-60
2023/01/09 01:42:36;;;;;;;;;0.00;0.00;;;;;7.38;82.21;97768.88;5034809;28;9482;-59
2023/01/09 01:45:04;;;;;;;;;0.00;0.00;;;;;7.36;82.34;97774.31;5035410;28;8840;-60
2023/01/09 01:47:32;;;;;;;;;0.00;0.00;;;;;7.36;82.20;97779.63;5036055;28;8849;-60
2023/01/09 01:49:59;;;;;;;;;0.00;0.00;;;;;7.35;82.46;97777.16;5036368;28;8832;-60
2023/01/09 01:52:27;;;;;;;;;0.00;0.00;;;;;7.36;82.27;97778.81;5035375;28;8820;-60
2023/01/09 01:54:55;;;;;;;;;0.00;0.00;;;;;7.36;82.59;97781.47;5036024;28;8825;-60
2023/01/09 01:57:23;;;;;;;;;0.00;0.00;;;;;7.35;82.16;97777.16;5035655;28;8847;-59
2023/01/09 01:59:50;;;;;;;;;0.00;0.00;;;;;7.35;82.38;97783.25;5036452;28;8863;-59
2023/01/09 02:02:18;;;;;;;;;0.00;0.00;;;;;7.37;82.56;97780.47;5036815;28;8827;-60
2023/01/09 02:04:47;;;;;;;;;0.00;0.00;;;;;7.38;82.50;97784.78;5037053;28;8902;-59
2023/01/09 02:07:15;;;;;;;;;0.00;0.00;;;;;7.39;82.37;97786.44;5036388;28;8832;-59
2023/01/09 02:09:45;;;;;;;;;0.00;0.00;;;;;7.40;82.72;97791.59;5036551;28;9526;-58
2023/01/09 02:12:12;;;;;;;;;0.00;0.00;;;;;7.41;82.46;97793.25;5036759;28;8836;-57
2023/01/09 02:14:40;;;;;;;;;0.00;0.00;;;;;7.42;82.19;97789.59;5036976;28;8852;-59
2023/01/09 02:17:08;;;;;;;;;0.00;0.00;;;;;7.43;82.19;97795.75;5036595;28;8838;-59
2023/01/09 02:19:36;;;;;;;;;0.00;0.00;;;;;7.46;82.21;97800.72;5036511;28;8858;-58
2023/01/09 02:22:03;;;;;;;;;0.00;0.00;;;;;7.48;82.49;97796.09;5035764;28;8830;-58
2023/01/09 02:24:31;;;;;;;;;0.00;0.00;;;;;7.52;81.98;97802.75;5036539;28;8861;-59
2023/01/09 02:26:58;;;;;;;;;0.00;0.00;;;;;7.56;82.01;97796.97;5036534;28;8816;-58
2023/01/09 02:29:27;;;;;;;;;0.00;0.00;;;;;7.62;81.51;97799.00;5036632;28;8863;-58
2023/01/09 02:31:54;;;;;;;;;0.00;0.00;;;;;7.68;81.58;97800.19;5036421;28;8851;-58
2023/01/09 02:34:23;;;;;;;;;0.00;0.00;;;;;7.72;81.72;97809.50;5036541;28;8846;-57
2023/01/09 02:36:50;;;;;;;;;0.00;0.00;;;;;7.76;81.29;97806.38;5035989;28;8812;-58
2023/01/09 02:39:18;;;;;;;;;0.00;0.00;;;;;7.77;81.42;97819.44;5035936;28;8828;-57
2023/01/09 02:41:46;;;;;;;;;0.00;0.00;;;;;7.80;81.44;97807.72;5035969;28;8859;-57
2023/01/09 02:44:14;;;;;;;;;0.00;0.00;;;;;7.82;81.10;97819.81;5035919;28;8832;-59
2023/01/09 02:46:42;;;;;;;;;0.00;0.00;;;;;7.83;81.18;97805.59;5036025;28;8861;-59
2023/01/09 02:49:09;;;;;;;;;0.00;0.00;;;;;7.86;81.22;97812.38;5036193;28;8825;-58
2023/01/09 02:51:38;;;;;;;;;0.00;0.00;;;;;7.87;80.91;97808.75;5035909;28;9513;-59
2023/01/09 02:54:06;;;;;;;;;0.00;0.00;;;;;7.87;80.66;97809.59;5019686;28;8860;-57
2023/01/09 02:56:34;;;;;;;;;0.00;0.00;;;;;7.88;80.41;97805.09;5036095;28;8817;-57
2023/01/09 02:59:02;;;;;;;;;0.00;0.00;;;;;7.87;80.84;97804.28;5035799;28;8820;-58
2023/01/09 03:01:31;;;;;;;;;0.00;0.00;;;;;7.90;80.79;97803.97;5035944;28;8812;-59
2023/01/09 03:03:59;;;;;;;;;0.00;0.00;;;;;7.89;80.70;97797.00;5035709;28;8832;-59
2023/01/09 03:06:27;;;;;;;;;0.00;0.00;;;;;7.89;80.47;97797.00;5035941;28;8837;-60
2023/01/09 03:08:54;;;;;;;;;0.00;0.00;;;;;7.89;80.73;97802.31;5035920;28;8821;-57
2023/01/09 03:11:22;;;;;;;;;0.00;0.00;;;;;7.88;80.70;97808.59;5035601;28;9493;-58
2023/01/09 03:13:50;;;;;;;;;0.00;0.00;;;;;7.86;80.61;97807.94;5035709;28;8821;-59
2023/01/09 03:16:18;;;;;;;;;0.00;0.00;;;;;7.86;80.87;97801.78;5035382;28;8835;-59
2023/01/09 03:18:46;;;;;;;;;0.00;0.00;;;;;7.85;80.74;97795.66;5034869;28;8855;-59
2023/01/09 03:21:13;;;;;;;;;0.25;0.25;;;;;7.85;80.89;97803.59;5035334;28;8820;-60
2023/01/09 03:23:41;;;;;;;;;0.25;0.00;;;;;7.84;80.68;97809.06;5035505;28;8871;-59
2023/01/09 03:26:09;;;;;;;;;1.00;0.00;;;;;7.79;80.84;97817.50;5035331;28;8844;-59
2023/01/09 03:28:36;;;;;;;;;0.00;0.00;;;;;7.75;80.82;97810.84;5035799;28;8868;-60
2023/01/09 03:31:04;;;;;;;;;0.00;0.00;;;;;7.68;80.95;97813.44;5036251;28;8841;-60
2023/01/09 03:33:32;;;;;;;;;0.00;0.00;;;;;7.59;81.17;97819.69;5039031;28;8923;-60
2023/01/09 03:36:00;;;;;;;;;0.25;0.25;;;;;7.53;81.12;97820.28;5039363;28;8820;-59
2023/01/09 03:38:28;;;;;;;;;0.00;0.00;;;;;7.48;81.60;97831.34;5039466;28;8833;-60
2023/01/09 03:40:55;;;;;;;;;1.00;0.75;;;;;7.49;81.27;97837.50;5038961;28;8848;-60
2023/01/09 03:43:23;;;;;;;;;0.00;0.00;;;;;7.51;81.43;97851.41;5039386;28;8829;-59
2023/01/09 03:45:51;;;;;;;;;1.00;1.00;;;;;7.54;80.91;97864.31;5038996;28;9479;-59
2023/01/09 03:48:18;;;;;;;;;1.00;1.00;;;;;7.59;81.38;97870.81;5039587;28;8964;-60
2023/01/09 03:50:46;;;;;;;;;0.25;0.25;;;;;7.64;81.68;97870.38;5039468;28;8832;-60
2023/01/09 03:53:13;;;;;;;;;0.00;0.00;;;;;7.66;81.13;97881.63;5039296;28;8848;-58
2023/01/09 03:55:41;;;;;;;;;1.00;1.00;;;;;7.68;80.71;97876.00;5039786;28;8826;-59
2023/01/09 03:58:09;;;;;;;;;0.50;0.00;;;;;7.69;80.98;97885.63;5039129;28;8907;-60
2023/01/09 04:00:38;;;;;;;;;2.50;1.00;;;;;7.72;81.00;97885.34;5038991;28;8814;-59
2023/01/09 04:03:05;;;;;;;;;0.00;0.00;;;;;7.73;80.87;97887.00;5039133;28;8834;-60
2023/01/09 04:05:33;;;;;;;;;0.75;0.75;;;;;7.75;80.86;97887.66;5038941;28;8828;-59
2023/01/09 04:08:01;;;;;;;;;1.00;0.75;;;;;7.77;80.64;97888.31;5037969;28;8839;-59
2023/01/09 04:10:28;;;;;;;;;1.00;1.00;;;;;7.79;80.63;97890.81;5039036;28;8888;-58
2023/01/09 04:12:56;;;;;;;;;2.00;0.75;;;;;7.77;80.95;97885.69;5039025;28;8840;-57
2023/01/09 04:15:24;;;;;;;;;0.00;0.00;;;;;7.78;80.75;97895.31;5038760;28;8816;-57
2023/01/09 04:17:51;;;;;;;;;0.00;0.00;;;;;7.80;81.02;97898.63;5039177;28;9838;-58
2023/01/09 04:20:19;;;;;;;;;0.50;0.25;;;;;7.82;80.78;97891.34;5038808;28;8843;-58
2023/01/09 04:22:47;;;;;;;;;1.00;0.00;;;;;7.81;80.89;97895.00;5038798;28;8829;-58
2023/01/09 04:25:14;;;;;;;;;0.25;0.25;;;;;7.81;80.47;97899.44;5038258;28;8893;-59
2023/01/09 04:27:42;;;;;;;;;0.50;0.25;;;;;7.79;80.88;97896.13;5038313;28;8876;-59
2023/01/09 04:30:09;;;;;;;;;1.50;1.00;;;;;7.80;80.64;97903.94;5038384;28;8910;-60
2023/01/09 04:32:37;;;;;;;;;1.00;1.00;;;;;7.80;80.63;97903.09;5038537;28;8818;-59
2023/01/09 04:35:05;;;;;;;;;0.75;0.75;;;;;7.79;80.66;97902.28;5038213;28;8818;-59
2023/01/09 04:37:35;;;;;;;;;1.00;1.00;;;;;7.75;80.88;97905.38;5038349;28;8822;-59
2023/01/09 04:40:05;;;;;;;;;0.00;0.00;;;;;7.73;80.87;97912.63;5038058;28;8809;-59
2023/01/09 04:42:32;;;;;;;;;1.50;1.50;;;;;7.72;80.65;97916.28;5037727;28;8809;-59
2023/01/09 04:45:00;;;;;;;;;0.00;0.00;;;;;7.74;80.59;97924.88;5036568;28;8817;-59
2023/01/09 04:47:29;;;;;;;;;0.00;0.00;;;;;7.73;80.31;97917.94;5037722;28;8861;-60
2023/01/09 04:49:57;;;;;;;;;4.00;3.00;;;;;7.70;80.39;97918.25;5037366;28;8902;-59
2023/01/09 04:52:25;;;;;;;;;0.50;0.50;;;;;7.68;80.37;97922.88;5037723;28;9502;-59
2023/01/09 04:54:52;;;;;;;;;0.25;0.00;;;;;7.66;80.95;97926.66;5037835;28;8840;-59
2023/01/09 04:57:20;;;;;;;;;0.75;0.00;;;;;7.57;80.71;97919.63;5037584;28;8816;-60
2023/01/09 04:59:48;;;;;;;;;1.00;1.00;;;;;7.48;81.29;97925.81;5037286;28;8825;-59
2023/01/09 05:02:17;;;;;;;;;0.00;0.00;;;;;7.40;81.16;97931.06;5037223;28;8819;-60
2023/01/09 05:04:45;;;;;;;;;0.00;0.00;;;;;7.32;81.15;97933.63;5037957;28;8817;-59
2023/01/09 05:07:13;;;;;;;;;0.00;0.00;;;;;7.24;81.81;97931.75;5037394;28;8837;-59
2023/01/09 05:09:41;;;;;;;;;0.00;0.00;;;;;7.21;81.51;97929.38;5037610;28;8809;-59
2023/01/09 05:12:09;;;;;;;;;0.00;0.00;;;;;7.15;81.20;97942.41;5037518;28;8805;-58
2023/01/09 05:14:36;;;;;;;;;0.00;0.00;;;;;7.07;81.65;97939.66;5037460;28;8856;-58
2023/01/09 05:17:04;;;;;;;;;0.00;0.00;;;;;7.02;81.82;97947.22;5037492;28;8833;-59
2023/01/09 05:19:33;;;;;;;;;0.50;0.50;;;;;6.99;81.69;97942.22;5037415;28;8852;-59
2023/01/09 05:22:01;;;;;;;;;0.00;0.00;;;;;6.97;82.11;97947.66;5037908;28;8847;-58
2023/01/09 05:24:29;;;;;;;;;0.50;0.00;;;;;6.95;81.78;97951.44;5037680;28;8875;-59
2023/01/09 05:26:57;;;;;;;;;1.00;1.00;;;;;6.91;81.46;97960.66;5037610;28;8963;-60
2023/01/09 05:29:24;;;;;;;;;0.00;0.00;;;;;6.83;82.15;97964.03;5036999;28;8820;-60
2023/01/09 05:31:52;;;;;;;;;3.00;3.00;;;;;6.79;81.81;97965.31;5037399;28;8824;-60
2023/01/09 05:34:20;;;;;;;;;0.80;0.80;;;;;6.77;81.92;97963.78;5037583;28;8898;-60
2023/01/09 05:36:48;;;;;;;;;0.00;0.00;;;;;6.73;81.89;97976.47;5036969;28;8820;-60
2023/01/09 05:39:16;;;;;;;;;0.60;0.60;;;;;6.70;81.85;97963.56;5037098;28;8812;-60
2023/01/09 05:41:43;;;;;;;;;0.00;0.00;;;;;6.65;82.50;97970.25;5036412;28;9556;-59
2023/01/09 05:44:11;;;;;;;;;1.00;1.00;;;;;6.61;82.38;97968.88;5035631;28;8863;-58
2023/01/09 05:46:39;;;;;;;;;1.80;1.00;;;;;6.56;82.37;97969.31;5035028;28;8883;-60
2023/01/09 05:49:07;;;;;;;;;1.00;1.00;;;;;6.53;81.60;97968.78;5034006;28;8848;-59
2023/01/09 05:51:34;;;;;;;;;1.80;1.00;;;;;6.54;82.28;97973.09;5034981;28;8848;-58
2023/01/09 05:54:03;;;;;;;;;0.20;0.20;;;;;6.57;82.33;97968.34;5034797;28;8836;-59
2023/01/09 05:56:31;;;;;;;;;0.00;0.00;;;;;6.65;81.90;97964.94;5035556;28;8847;-59
2023/01/09 05:58:59;;;;;;;;;0.00;0.00;;;;;6.69;81.96;97967.16;5036210;28;8841;-59
2023/01/09 06:01:27;;;;;;;;;1.40;1.00;;;;;6.73;81.86;97965.03;5036102;28;8847;-59
2023/01/09 06:03:55;;;;;;;;;0.00;0.00;;;;;6.77;81.25;97963.78;5036053;28;8828;-60
2023/01/09 06:06:24;;;;;;;;;0.00;0.00;;;;;6.83;81.36;97969.31;5035912;28;9490;-59
2023/01/09 06:08:53;;;;;;;;;0.00;0.00;;;;;6.88;81.11;97969.72;5035709;28;8848;-59
2023/01/09 06:11:21;;;;;;;;;0.00;0.00;;;;;6.92;81.27;97967.59;5035951;28;8856;-58
2023/01/09 06:13:49;;;;;;;;;0.00;0.00;;;;;6.97;80.94;97965.38;5035518;28;8812;-57
2023/01/09 06:16:17;;;;;;;;;0.00;0.00;;;;;7.01;81.02;97966.72;5035683;28;8820;-59
2023/01/09 06:18:45;;;;;;;;;0.00;0.00;;;;;7.04;81.06;97971.72;5036086;28;8833;-59
2023/01/09 06:21:13;;;;;;;;;0.00;0.00;;;;;7.07;80.58;97966.13;5035997;28;8841;-59
2023/01/09 06:23:40;;;;;;;;;0.00;0.00;;;;;7.08;80.60;97973.06;5035641;28;8864;-59
2023/01/09 06:26:08;;;;;;;;;0.00;0.00;;;;;7.07;80.64;97972.25;5035574;28;8918;-59
2023/01/09 06:28:36;;;;;;;;;0.00;0.00;;;;;7.10;80.49;97971.09;5034415;28;8832;-59
2023/01/09 06:31:04;;;;;;;;;0.00;0.00;;;;;7.13;80.18;97981.41;5033517;28;8920;-59
2023/01/09 06:33:32;;;;;;;;;0.00;0.00;;;;;7.13;80.44;97976.13;5032697;28;8859;-58
2023/01/09 06:36:00;;;;;;;;;0.00;0.00;;;;;7.11;80.29;97968.31;5031929;28;8843;-58
2023/01/09 06:38:27;;;;;;;;;0.00;0.00;;;;;7.09;80.51;97980.88;5031835;28;8844;-59
2023/01/09 06:40:55;;;;;;;;;0.75;0.75;;;;;7.07;80.25;97987.28;5031034;28;8855;-59
2023/01/09 06:43:23;;;;;;;;;0.00;0.00;;;;;7.06;80.31;97981.16;5030988;28;8859;-59
2023/01/09 06:45:50;;;;;;;;;0.00;0.00;;;;;7.02;80.19;97990.38;5031782;28;8864;-59
2023/01/09 06:48:19;;;;;;;;;0.00;0.00;;;;;6.98;80.28;97982.91;5032200;28;8864;-58
2023/01/09 06:50:46;;;;;;;;;0.25;0.25;;;;;6.94;80.48;97978.88;5032710;28;8817;-59
2023/01/09 06:53:14;;;;;;;;;0.00;0.00;;;;;6.93;80.56;97982.50;5032560;28;8836;-59
2023/01/09 06:55:41;;;;;;;;;0.00;0.00;;;;;6.96;80.58;97998.09;5032144;28;9551;-57
2023/01/09 06:58:09;;;;;;;;;0.00;0.00;;;;;6.96;80.63;97983.03;5031628;28;8902;-59
2023/01/09 07:00:37;;;;;;;;;0.80;0.80;;;;;6.97;80.47;97986.53;5031714;28;8837;-59
2023/01/09 07:03:05;;;;;;;;;0.00;0.00;;;;;6.97;79.89;97987.34;5031719;28;8853;-59
2023/01/09 07:05:32;;;;;;;;;0.00;0.00;;;;;6.97;80.20;97989.19;5031634;28;8836;-56
2023/01/09 07:08:00;;;;;;;;;0.00;0.00;;;;;6.98;79.95;97982.91;5031123;28;8884;-59
2023/01/09 07:10:28;;;;;;;;;0.00;0.00;;;;;7.02;80.20;97995.69;5031524;28;8844;-58
2023/01/09 07:12:56;;;;;;;;;0.00;0.00;;;;;7.03;79.82;97994.69;5032132;28;8849;-59
2023/01/09 07:15:24;;;;;;;;;0.00;0.00;;;;;7.04;80.29;97992.91;5032543;28;8874;-59
2023/01/09 07:17:52;;;;;;;;;0.00;0.00;;;;;7.01;79.85;97996.66;5032489;28;8885;-59
2023/01/09 07:20:19;;;;;;;;;0.00;0.00;;;;;6.94;80.24;98000.88;5032749;28;9530;-59
2023/01/09 07:22:47;;;;;;;;;0.00;0.00;;;;;6.84;80.58;98005.34;5033562;28;8832;-59
2023/01/09 07:25:16;;;;;;;;;0.00;0.00;;;;;6.76;81.31;98007.09;5033727;28;8817;-58
2023/01/09 07:27:43;;;;;;;;;0.00;0.00;;;;;6.68;81.17;98013.09;5033590;28;8844;-59
2023/01/09 07:30:11;;;;;;;;;0.00;0.00;;;;;6.66;81.35;98006.31;5033601;28;8848;-59
2023/01/09 07:32:39;;;;;;;;;0.00;0.00;;;;;6.62;81.73;98000.47;5033791;28;8844;-59
2023/01/09 07:35:09;;;;;;;;;0.00;0.00;;;;;6.62;81.55;98012.84;5033512;28;8955;-59
2023/01/09 07:37:37;;;;;;;;;0.20;0.00;;;;;6.60;81.52;98012.97;5033169;28;8833;-58
2023/01/09 07:40:04;;;;;;;;;0.00;0.00;;;;;6.58;81.85;98012.31;5033257;28;8844;-57
2023/01/09 07:42:32;;;;;;;;;0.00;0.00;;;;;6.56;81.81;98002.84;5033531;28;9518;-59
2023/01/09 07:45:00;;;;;;;;;0.00;0.00;;;;;6.55;81.71;98006.47;5032823;28;8836;-59
2023/01/09 07:47:28;;;;;;;;;0.20;0.20;;;;;6.55;82.40;98012.59;5032498;28;8869;-59
2023/01/09 07:49:56;;;;;;;;;0.40;0.00;;;;;6.55;81.95;98007.31;5032650;28;8937;-57
2023/01/09 07:52:24;;;;;;;;;0.00;0.00;;;;;6.58;81.42;98006.16;5032241;28;8868;-58
2023/01/09 07:54:52;;;;;;;;;1.00;1.00;;;;;6.63;81.87;98009.22;5032911;28;8868;-59
2023/01/09 07:57:19;;;;;;;;;0.00;0.00;;;;;6.67;81.71;98006.16;5033146;28;9633;-59
2023/01/09 07:59:47;;;;;;;;;0.00;0.00;;;;;6.74;81.56;98017.00;5033067;28;8848;-58
2023/01/09 08:02:16;;;;;;;;;0.00;0.00;;;;;6.81;81.64;98021.53;5033575;28;8855;-59
2023/01/09 08:04:44;;;;;;;;;0.00;0.00;;;;;6.87;81.32;98013.03;5033308;28;8844;-59
2023/01/09 08:07:12;;;;;;;;;0.00;0.00;;;;;6.93;81.38;98001.00;5032935;28;9601;-59
2023/01/09 08:09:40;;;;;;;;;0.00;0.00;;;;;6.97;80.84;98005.88;5032839;28;8850;-59
2023/01/09 08:12:08;;;;;;;;;0.00;0.00;;;;;7.02;81.10;97997.47;5033289;28;8836;-59
2023/01/09 08:14:36;;;;;;;;;0.00;0.00;;;;;7.07;80.89;98000.53;5033023;28;8856;-57
2023/01/09 08:17:04;;;;;;;;;0.50;0.25;;;;;7.10;80.80;98008.16;5032402;28;8864;-57
2023/01/09 08:19:32;;;;;;;;;0.00;0.00;;;;;7.07;80.73;98027.84;5034139;28;8970;-58
2023/01/09 08:22:00;;;;;;;;;0.00;0.00;;;;;7.01;80.79;98019.63;5036680;28;8850;-58
2023/01/09 08:24:29;;;;;;;;;0.00;0.00;;;;;6.94;80.90;98029.13;5036873;28;8833;-59
2023/01/09 08:26:57;;;;;;;;;0.00;0.00;;;;;6.88;81.07;98021.78;5037032;28;9613;-59
2023/01/09 08:29:24;;;;;;;;;0.00;0.00;;;;;6.81;81.37;98032.13;5036972;28;8922;-59
2023/01/09 08:31:52;;;;;;;;;0.00;0.00;;;;;6.79;81.53;98026.16;5037188;28;8824;-59
2023/01/09 08:34:20;;;;;;;;;0.00;0.00;;;;;6.78;81.68;98040.34;5035878;28;8945;-59
2023/01/09 08:36:48;;;;;;;;;0.00;0.00;;;;;6.78;82.27;98039.50;5035363;28;8875;-58
2023/01/09 08:39:16;;;;;;;;;0.00;0.00;;;;;6.76;81.61;98028.25;5034496;28;8905;-59
2023/01/09 08:47:15;;;;;;;;;0.00;0.00;;;;;6.76;82.08;98034.34;5035837;28;9003;-59
2023/01/09 08:49:44;;;;;;;;;0.00;0.00;;;;;6.80;82.13;98032.25;5035959;28;8863;-58
2023/01/09 08:52:12;;;;;;;;;0.00;0.00;;;;;6.83;82.13;98047.84;5036406;28;8840;-57
2023/01/09 08:54:40;;;;;;;;;0.00;0.00;;;;;6.86;81.97;98043.09;5037068;28;8870;-59
2023/01/09 08:57:08;;;;;;;;;1.00;0.00;;;;;6.89;82.08;98052.56;5036005;28;8840;-59
2023/01/09 08:59:36;;;;;;;;;0.00;0.00;;;;;6.92;81.56;98050.47;5035451;28;8836;-57
2023/01/09 09:02:05;;;;;;;;;0.00;0.00;;;;;6.95;82.12;98050.16;5034374;28;8967;-59
2023/01/09 09:04:33;;;;;;;;;0.00;0.00;;;;;6.95;82.02;98039.56;5035254;28;8926;-59
2023/01/09 09:07:01;;;;;;;;;0.00;0.00;;;;;6.96;82.10;98048.38;5034679;28;8975;-57
2023/01/09 09:09:29;;;;;;;;;0.20;0.20;;;;;6.98;81.73;98051.69;5034900;28;8844;-58
2023/01/09 09:11:57;;;;;;;;;0.00;0.00;;;;;7.03;82.05;98057.34;5034430;28;8882;-59
2023/01/09 09:17:11;;;;;;;;;0.00;0.00;;;;;7.13;81.65;98048.38;5035910;28;8866;-59
2023/01/09 09:19:41;;;;;;;;;0.00;0.00;;;;;7.21;81.56;98043.19;5036031;28;8836;-59
2023/01/09 09:22:11;;;;;;;;;0.00;0.00;;;;;7.33;81.77;98034.06;5036341;28;8848;-59
2023/01/09 09:24:38;;;;;;;;;0.00;0.00;;;;;7.49;81.21;98025.50;5036229;28;8922;-58
2023/01/09 09:27:06;;;;;;;;;0.00;0.00;;;;;7.65;81.11;98033.59;5036451;28;8879;-57
2023/01/09 09:29:34;;;;;;;;;0.00;0.00;;;;;7.79;80.29;98021.50;5036058;28;9503;-59
2023/01/09 09:32:02;;;;;;;;;0.00;0.00;;;;;7.93;79.98;98028.06;5035662;28;8852;-59
2023/01/09 09:34:30;;;;;;;;;0.00;0.00;;;;;8.06;79.97;98037.28;5036007;28;8859;-59
2023/01/09 09:36:58;;;;;;;;;0.00;0.00;;;;;8.19;79.44;98032.44;5035516;28;8921;-60
2023/01/09 09:39:26;;;;;;;;;0.00;0.00;;;;;8.26;79.27;98033.50;5033967;28;8840;-59
2023/01/09 09:44:49;;;;;;;;;0.00;0.00;;;;;8.40;78.98;98032.94;5034746;28;8930;-59
2023/01/09 09:47:20;;;;;;;;;0.00;0.00;;;;;8.45;78.59;98037.78;5034534;28;8864;-58
2023/01/09 09:49:48;;;;;;;;;0.00;0.00;;;;;8.50;78.57;98049.56;5034701;28;8836;-60
2023/01/09 09:52:16;;;;;;;;;0.00;0.00;;;;;8.57;77.98;98037.34;5034952;28;8844;-59
2023/01/09 09:54:44;;;;;;;;;0.00;0.00;;;;;8.57;77.92;98031.22;5034983;28;8848;-59
2023/01/09 09:57:12;;;;;;;;;0.00;0.00;;;;;8.56;77.86;98035.69;5034799;28;8929;-59
2023/01/09 09:59:40;;;;;;;;;0.00;0.00;;;;;8.49;77.77;98055.03;5034899;28;8833;-57
2023/01/09 10:02:08;;;;;;;;;0.00;0.00;;;;;8.41;78.22;98063.78;5034776;28;8841;-60
2023/01/09 10:04:36;;;;;;;;;0.00;0.00;;;;;8.37;78.37;98073.00;5034605;28;8833;-59
2023/01/09 10:07:05;;;;;;;;;0.00;0.00;;;;;8.54;77.78;98074.81;5034618;28;8840;-58
2023/01/09 10:09:33;;;;;;;;;0.00;0.00;;;;;8.69;77.44;98065.31;5033888;28;8981;-59
2023/01/09 10:12:02;;;;;;;;;0.00;0.00;;;;;8.94;77.26;98060.94;5032837;28;9789;-59
2023/01/09 10:14:30;;;;;;;;;0.50;0.00;;;;;9.35;75.91;98060.97;5032104;28;8837;-59
2023/01/09 10:16:58;;;;;;;;;0.00;0.00;;;;;9.69;75.09;98069.72;5032678;28;9011;-59
2023/01/09 10:19:26;;;;;;;;;0.00;0.00;;;;;10.17;74.68;98067.16;5033542;28;8844;-58
2023/01/09 10:21:54;;;;;;;;;0.00;0.00;;;;;10.51;73.27;98062.50;5034002;28;8844;-57
2023/01/09 10:24:23;;;;;;;;;0.00;0.00;;;;;10.37;73.75;98052.53;5034641;28;8856;-59
2023/01/09 10:26:51;;;;;;;;;0.00;0.00;;;;;10.12;73.69;98085.47;5034460;28;8841;-57
2023/01/09 10:29:19;;;;;;;;;0.75;0.00;;;;;9.78;74.47;98084.69;5034099;28;8836;-57
2023/01/09 10:31:46;;;;;;;;;0.00;0.00;;;;;9.31;75.57;98077.38;5034676;28;8849;-59
2023/01/09 10:34:15;;;;;;;;;0.00;0.00;;;;;8.88;76.56;98088.13;5033930;28;8987;-59
2023/01/09 10:36:43;;;;;;;;;0.00;0.00;;;;;8.60;77.42;98089.28;5034054;28;8921;-59
2023/01/09 10:39:11;;;;;;;;;0.00;0.00;;;;;8.45;77.86;98088.97;5034490;28;8856;-58
2023/01/09 10:41:39;;;;;;;;;0.00;0.00;;;;;8.35;78.26;98096.22;5033692;28;8839;-56
2023/01/09 10:44:07;;;;;;;;;0.00;0.00;;;;;8.32;78.21;98087.72;5034269;28;8868;-57
2023/01/09 10:46:35;;;;;;;;;1.00;0.00;;;;;8.34;77.83;98086.59;5034631;28;8840;-59
2023/01/09 10:49:04;;;;;;;;;0.00;0.00;;;;;8.39;78.04;98094.09;5034737;28;8852;-58
2023/01/09 10:51:32;;;;;;;;;0.25;0.00;;;;;8.40;78.28;98096.59;5034391;28;8845;-59
2023/01/09 10:54:00;;;;;;;;;0.00;0.00;;;;;8.43;77.85;98096.28;5033806;28;8852;-59
2023/01/09 10:56:28;;;;;;;;;0.00;0.00;;;;;8.47;77.26;98110.91;5034175;28;8820;-59
2023/01/09 10:58:56;;;;;;;;;0.00;0.00;;;;;8.47;77.28;98102.94;5033359;28;8988;-57
2023/01/09 11:01:25;;;;;;;;;0.00;0.00;;;;;8.47;77.81;98102.09;5033823;28;8867;-59
2023/01/09 11:03:53;;;;;;;;;0.00;0.00;;;;;8.47;77.53;98113.56;5033056;28;8840;-58
2023/01/09 11:06:21;;;;;;;;;0.00;0.00;;;;;8.48;77.48;98103.75;5032843;28;8836;-58
2023/01/09 11:08:49;;;;;;;;;0.00;0.00;;;;;8.50;77.56;98109.78;5033617;28;8937;-58
2023/01/09 11:11:17;;;;;;;;;0.00;0.00;;;;;8.52;77.25;98105.94;5033861;28;8872;-59
2023/01/09 11:13:47;;;;;;;;;0.00;0.00;;;;;8.58;77.18;98097.38;5034294;28;8844;-58
2023/01/09 11:16:15;;;;;;;;;1.00;1.00;;;;;8.58;77.70;98092.06;5033398;28;8852;-57
2023/01/09 11:18:43;;;;;;;;;1.00;1.00;;;;;8.58;77.46;98097.38;5033150;28;8848;-57
2023/01/09 11:21:11;;;;;;;;;1.00;1.00;;;;;8.60;77.10;98090.09;5032768;28;8870;-56
2023/01/09 11:23:39;;;;;;;;;0.00;0.00;;;;;8.64;77.26;98086.16;5032774;28;8856;-59
2023/01/09 11:26:08;;;;;;;;;1.00;1.00;;;;;8.66;77.09;98094.78;5032499;28;8836;-59
2023/01/09 11:28:38;;;;;;;;;3.00;2.00;;;;;8.65;77.50;98106.38;5031724;28;8931;-59
2023/01/09 11:31:06;;;;;;;;;0.00;0.00;;;;;8.63;77.51;98099.56;5032462;28;8833;-59
2023/01/09 11:33:34;;;;;;;;;1.00;1.00;;;;;8.63;77.26;98097.75;5033573;28;9022;-58
2023/01/09 11:36:02;;;;;;;;;0.00;0.00;;;;;8.65;77.31;98098.44;5032595;28;8845;-57
2023/01/09 11:38:31;;;;;;;;;1.00;0.50;;;;;8.70;77.43;98100.63;5032118;28;8849;-59
2023/01/09 11:40:59;;;;;;;;;1.00;1.00;;;;;8.73;77.23;98105.63;5032156;28;8853;-59
2023/01/09 11:43:29;;;;;;;;;0.00;0.00;;;;;8.73;76.73;98106.44;5033075;28;8856;-60
2023/01/09 11:45:57;;;;;;;;;2.00;0.75;;;;;8.75;76.89;98107.09;5032838;28;8849;-58
2023/01/09 11:48:28;;;;;;;;;0.00;0.00;;;;;8.79;76.75;98115.59;5033061;28;8864;-59
2023/01/09 11:50:57;;;;;;;;;0.00;0.00;;;;;8.80;76.88;98115.44;5032841;28;9687;-58
2023/01/09 11:53:25;;;;;;;;;0.50;0.50;;;;;8.81;76.62;98113.63;5034726;28;8832;-60
2023/01/09 11:55:54;;;;;;;;;0.75;0.75;;;;;8.81;76.50;98119.75;5035805;28;8975;-59
2023/01/09 11:58:22;;;;;;;;;0.75;0.75;;;;;8.83;76.61;98120.44;5035138;28;8836;-57
2023/01/09 12:00:50;;;;;;;;;1.50;1.50;;;;;8.82;76.64;98121.41;5036038;28;8832;-59
2023/01/09 12:03:19;;;;;;;;;2.00;2.00;;;;;8.81;76.36;98132.22;5035514;28;8848;-58
2023/01/09 12:05:46;;;;;;;;;1.00;1.00;;;;;8.77;76.41;98121.06;5034804;28;8855;-59
2023/01/09 12:08:14;;;;;;;;;1.00;1.00;;;;;8.77;76.83;98126.38;5035935;28;8942;-59